createdAt,value
2023-02-01T00:01:09.035Z,7.47
2023-02-01T00:06:11.828Z,7.03
2023-02-01T00:11:14.046Z,6.70
2023-02-01T00:16:27.555Z,6.87
2023-02-01T00:21:29.439Z,6.90
2023-02-01T00:26:39.153Z,6.63
2023-02-01T00:31:41.136Z,6.40
2023-02-01T00:36:43.741Z,6.17
2023-02-01T00:41:45.433Z,5.93
2023-02-01T00:46:46.953Z,5.93
2023-02-01T00:51:55.059Z,6.30
2023-02-01T00:56:56.731Z,5.17
2023-02-01T01:01:58.387Z,5.00
2023-02-01T01:07:00.118Z,5.33
2023-02-01T01:12:03.625Z,4.17
2023-02-01T01:17:06.366Z,4.20
2023-02-01T01:22:07.986Z,3.47
2023-02-01T01:27:09.512Z,3.50
2023-02-01T01:32:11.272Z,3.70
2023-02-01T01:37:12.808Z,3.30
2023-02-01T01:42:14.467Z,3.60
2023-02-01T01:47:17.053Z,4.00
2023-02-01T01:52:19.633Z,3.60
2023-02-01T01:57:34.684Z,3.00
2023-02-01T02:02:37.470Z,2.90
2023-02-01T02:07:42.927Z,3.33
2023-02-01T02:12:46.279Z,2.90
2023-02-01T02:18:02.265Z,2.90
2023-02-01T02:23:24.269Z,3.60
2023-02-01T02:29:06.794Z,3.20
2023-02-01T02:34:26.695Z,2.80
2023-02-01T02:39:51.205Z,3.83
2023-02-01T02:45:21.256Z,3.87
2023-02-01T02:51:02.487Z,3.10
2023-02-01T02:56:26.248Z,3.57
2023-02-01T03:01:47.381Z,3.33
2023-02-01T03:06:49.078Z,4.20
2023-02-01T03:12:14.811Z,3.73
2023-02-01T03:17:20.209Z,3.67
2023-02-01T03:22:24.631Z,4.13
2023-02-01T03:27:41.733Z,3.53
2023-02-01T03:33:01.515Z,3.87
2023-02-01T03:38:10.285Z,3.20
2023-02-01T03:43:16.331Z,3.33
2023-02-01T03:48:18.361Z,3.03
2023-02-01T03:53:22.628Z,3.20
2023-02-01T03:58:24.871Z,3.57
2023-02-01T04:03:27.472Z,3.10
2023-02-01T04:08:29.155Z,3.73
2023-02-01T04:13:30.878Z,3.60
2023-02-01T04:18:32.401Z,3.60
2023-02-01T04:23:33.982Z,3.80
2023-02-01T04:28:35.547Z,3.63
2023-02-01T04:33:37.212Z,3.50
2023-02-01T04:38:38.746Z,4.00
2023-02-01T04:43:40.293Z,3.37
2023-02-01T04:48:42.142Z,4.20
2023-02-01T04:53:43.660Z,3.77
2023-02-01T04:58:45.404Z,3.47
2023-02-01T05:03:46.983Z,3.87
2023-02-01T05:08:48.617Z,3.30
2023-02-01T05:13:50.214Z,3.63
2023-02-01T05:18:51.881Z,4.37
2023-02-01T05:24:13.866Z,3.73
2023-02-01T05:29:16.015Z,3.43
2023-02-01T05:34:17.943Z,3.93
2023-02-01T05:39:20.019Z,3.50
2023-02-01T05:44:22.619Z,3.50
2023-02-01T05:49:24.291Z,3.40
2023-02-01T05:54:25.825Z,3.40
2023-02-01T05:59:27.486Z,3.20
2023-02-01T06:04:29.218Z,3.03
2023-02-01T06:09:31.044Z,3.50
2023-02-01T06:14:32.683Z,3.23
2023-02-01T06:19:34.406Z,3.60
2023-02-01T06:24:35.969Z,2.70
2023-02-01T06:29:37.581Z,3.50
2023-02-01T06:34:40.505Z,2.97
2023-02-01T06:39:42.153Z,2.90
2023-02-01T06:44:44.811Z,2.83
2023-02-01T06:49:46.603Z,2.77
2023-02-01T06:54:48.305Z,2.93
2023-02-01T06:59:50.130Z,2.93
2023-02-01T07:04:52.512Z,2.97
2023-02-01T07:09:54.206Z,3.40
2023-02-01T07:14:55.849Z,2.63
2023-02-01T07:19:57.873Z,3.30
2023-02-01T07:24:59.462Z,2.57
2023-02-01T07:30:03.289Z,3.33
2023-02-01T07:35:05.162Z,3.20
2023-02-01T07:40:07.209Z,3.50
2023-02-01T07:45:21.037Z,3.07
2023-02-01T07:50:23.490Z,3.43
2023-02-01T07:55:25.793Z,2.90
2023-02-01T08:00:46.140Z,3.10
2023-02-01T08:05:48.493Z,4.17
2023-02-01T08:10:50.921Z,2.70
2023-02-01T08:15:53.611Z,3.20
2023-02-01T08:20:55.474Z,2.93
2023-02-01T08:26:25.404Z,3.10
2023-02-01T08:31:29.140Z,4.03
2023-02-01T08:36:31.905Z,3.10
2023-02-01T08:41:33.538Z,2.80
2023-02-01T08:46:35.085Z,3.13
2023-02-01T08:51:36.711Z,2.93
2023-02-01T08:56:38.293Z,2.83
2023-02-01T09:01:39.963Z,3.27
2023-02-01T09:06:42.259Z,3.13
2023-02-01T09:11:44.220Z,2.97
2023-02-01T09:16:45.951Z,2.87
2023-02-01T09:21:47.608Z,2.70
2023-02-01T09:26:49.905Z,3.33
2023-02-01T09:32:02.879Z,3.10
2023-02-01T09:37:05.177Z,2.97
2023-02-01T09:42:06.794Z,2.70
2023-02-01T09:47:27.245Z,2.63
2023-02-01T09:52:49.346Z,2.47
2023-02-01T09:58:03.666Z,2.63
2023-02-01T10:03:06.054Z,2.77
2023-02-01T10:08:15.182Z,2.57
2023-02-01T10:13:23.038Z,3.07
2023-02-01T10:18:37.480Z,2.47
2023-02-01T10:23:43.372Z,2.43
2023-02-01T10:28:49.612Z,3.03
2023-02-01T10:34:02.858Z,3.17
2023-02-01T10:39:08.756Z,3.00
2023-02-01T10:44:19.195Z,2.40
2023-02-01T10:49:30.899Z,2.70
2023-02-01T10:54:34.847Z,2.57
2023-02-01T10:59:37.469Z,2.63
2023-02-01T11:04:40.043Z,2.73
2023-02-01T11:09:42.373Z,2.40
2023-02-01T11:14:44.062Z,2.30
2023-02-01T11:19:46.779Z,2.40
2023-02-01T11:24:48.623Z,2.20
2023-02-01T11:29:52.765Z,1.93
2023-02-01T11:34:58.585Z,2.20
2023-02-01T11:40:03.031Z,2.53
2023-02-01T11:45:25.919Z,2.63
2023-02-01T11:50:42.646Z,2.53
2023-02-01T11:56:01.002Z,2.00
2023-02-01T12:01:18.222Z,2.70
2023-02-01T12:06:36.012Z,2.63
2023-02-01T12:12:02.548Z,2.00
2023-02-01T12:17:33.990Z,1.93
2023-02-01T12:22:43.349Z,2.43
2023-02-01T12:27:56.975Z,2.40
2023-02-01T12:33:04.482Z,2.33
2023-02-01T12:38:21.024Z,2.23
2023-02-01T12:43:26.333Z,2.13
2023-02-01T12:48:35.759Z,2.73
2023-02-01T12:53:52.322Z,2.30
2023-02-01T12:58:56.830Z,2.20
2023-02-01T13:04:12.527Z,2.20
2023-02-01T13:09:46.825Z,2.27
2023-02-01T13:14:58.670Z,2.60
2023-02-01T13:20:11.176Z,2.50
2023-02-01T13:25:15.078Z,2.40
2023-02-01T13:30:27.087Z,2.00
2023-02-01T13:35:47.425Z,2.17
2023-02-01T13:41:29.151Z,2.87
2023-02-01T13:46:31.237Z,2.23
2023-02-01T13:51:46.812Z,2.10
2023-02-01T13:56:48.384Z,2.23
2023-02-01T14:01:50.090Z,1.90
2023-02-01T14:06:52.698Z,2.20
2023-02-01T14:11:58.043Z,2.37
2023-02-01T14:17:00.462Z,3.10
2023-02-01T14:22:28.084Z,2.10
2023-02-01T14:27:32.165Z,3.10
2023-02-01T14:32:39.322Z,2.00
2023-02-01T14:37:40.935Z,2.30
2023-02-01T14:42:42.394Z,2.47
2023-02-01T14:47:44.476Z,2.80
2023-02-01T14:53:20.021Z,2.30
2023-02-01T14:58:40.033Z,2.30
2023-02-01T15:04:00.600Z,2.20
2023-02-01T15:09:35.158Z,2.03
2023-02-01T15:14:39.590Z,2.10
2023-02-01T15:19:54.909Z,3.97
2023-02-01T15:24:58.413Z,2.57
2023-02-01T15:30:19.927Z,2.13
2023-02-01T15:35:41.491Z,2.03
2023-02-01T15:41:03.156Z,2.03
2023-02-01T15:46:10.033Z,2.00
2023-02-01T15:51:38.095Z,2.33
2023-02-01T15:56:45.015Z,2.03
2023-02-01T16:01:46.943Z,2.63
2023-02-01T16:06:54.620Z,2.00
2023-02-01T16:11:59.030Z,2.07
2023-02-01T16:17:01.881Z,2.30
2023-02-01T16:22:03.451Z,2.47
2023-02-01T16:27:07.959Z,2.30
2023-02-01T16:32:18.807Z,2.33
2023-02-01T16:37:22.466Z,2.20
2023-02-01T16:42:24.160Z,2.90
2023-02-01T16:47:25.884Z,2.00
2023-02-01T16:52:27.836Z,2.20
2023-02-01T16:57:30.393Z,3.00
2023-02-01T17:02:32.103Z,2.40
2023-02-01T17:07:33.713Z,2.77
2023-02-01T17:12:35.520Z,2.50
2023-02-01T17:17:39.554Z,2.57
2023-02-01T17:22:41.301Z,2.70
2023-02-01T17:27:43.041Z,2.33
2023-02-01T17:32:45.859Z,2.57
2023-02-01T17:37:48.552Z,3.10
2023-02-01T17:42:50.283Z,2.77
2023-02-01T17:47:53.099Z,2.70
2023-02-01T17:52:54.619Z,4.27
2023-02-01T17:57:56.796Z,2.67
2023-02-01T18:03:00.638Z,3.20
2023-02-01T18:08:02.434Z,2.67
2023-02-01T18:13:04.481Z,2.80
2023-02-01T18:18:06.847Z,3.10
2023-02-01T18:23:14.408Z,3.20
2023-02-01T18:28:16.555Z,2.87
2023-02-01T18:33:20.837Z,3.17
2023-02-01T18:38:22.423Z,2.87
2023-02-01T18:43:24.533Z,3.37
2023-02-01T18:48:26.091Z,2.80
2023-02-01T18:53:27.833Z,3.33
2023-02-01T18:58:31.905Z,3.10
2023-02-01T19:03:33.730Z,3.13
2023-02-01T19:08:45.494Z,3.80
2023-02-01T19:13:50.354Z,3.23
2023-02-01T19:18:52.681Z,3.33
2023-02-01T19:23:54.372Z,4.10
2023-02-01T19:28:58.271Z,3.77
2023-02-01T19:34:00.966Z,3.63
2023-02-01T19:39:02.519Z,2.80
2023-02-01T19:44:05.750Z,3.10
2023-02-01T19:49:11.980Z,2.87
2023-02-01T19:54:14.011Z,4.00
2023-02-01T19:59:15.593Z,3.00
2023-02-01T20:04:16.794Z,3.10
2023-02-01T20:09:20.291Z,2.80
2023-02-01T20:14:24.203Z,3.30
2023-02-01T20:19:26.475Z,3.03
2023-02-01T20:24:29.369Z,3.27
2023-02-01T20:29:32.215Z,3.67
2023-02-01T20:34:33.849Z,2.80
2023-02-01T20:39:35.500Z,2.70
2023-02-01T20:44:37.140Z,2.97
2023-02-01T20:49:40.775Z,3.30
2023-02-01T20:54:42.608Z,2.70
2023-02-01T20:59:44.182Z,3.20
2023-02-01T21:04:45.934Z,3.30
2023-02-01T21:09:47.508Z,2.97
2023-02-01T21:14:49.200Z,3.10
2023-02-01T21:19:50.779Z,3.43
2023-02-01T21:24:52.491Z,2.87
2023-02-01T21:29:54.148Z,2.60
2023-02-01T21:34:55.938Z,2.80
2023-02-01T21:39:57.519Z,3.03
2023-02-01T21:45:01.376Z,2.77
2023-02-01T21:50:03.012Z,3.33
2023-02-01T21:55:07.283Z,3.10
2023-02-01T22:00:09.728Z,3.30
2023-02-01T22:05:11.452Z,3.60
2023-02-01T22:10:14.157Z,3.47
2023-02-01T22:15:15.836Z,3.17
2023-02-01T22:20:17.694Z,3.30
2023-02-01T22:25:19.612Z,3.23
2023-02-01T22:30:21.520Z,3.43
2023-02-01T22:35:23.394Z,3.80
2023-02-01T22:40:25.170Z,3.53
2023-02-01T22:45:26.784Z,3.57
2023-02-01T22:50:28.299Z,3.40
2023-02-01T22:55:31.752Z,3.77
2023-02-01T23:00:33.410Z,3.77
2023-02-01T23:05:39.739Z,4.10
2023-02-01T23:10:43.835Z,3.70
2023-02-01T23:15:45.475Z,3.87
2023-02-01T23:20:47.045Z,3.63
2023-02-01T23:25:51.999Z,3.73
2023-02-01T23:30:53.773Z,3.93
2023-02-01T23:35:58.583Z,3.87
2023-02-01T23:41:05.524Z,3.93
2023-02-01T23:46:07.207Z,3.10
2023-02-01T23:51:08.970Z,3.97
2023-02-01T23:56:17.924Z,3.30
